Time;durP1;ratioP1;P1;durP2;ratioP2;P2;SDS_P1;SDS_P2;PMS_P1;PMS_P2;Temp;Humidity;BMP_temperature;BMP_pressure;BME280_temperature;BME280_humidity;BME280_pressure;Samples;Min_cycle;Max_cycle;Signal;HPM_P1;HPM_P2
2021/07/10 00:00:33;;;;;;;0.50;0.50;;;;;;;;;;5090439;28;20028;-49
2021/07/10 00:03:00;;;;;;;1.15;0.50;;;;;;;;;;5089495;28;20448;-47
2021/07/10 00:05:27;;;;;;;0.50;0.50;;;;;;;;;;5083453;28;20103;-48
2021/07/10 00:07:54;;;;;;;0.50;0.50;;;;;;;;;;5081158;28;20038;-50
2021/07/10 00:10:20;;;;;;;0.60;0.60;;;;;;;;;;5073798;28;20076;-49
2021/07/10 00:12:47;;;;;;;0.50;0.50;;;;;;;;;;5090212;28;20105;-51
2021/07/10 00:15:20;;;;;;;0.60;0.60;;;;;;;;;;5101570;28;20079;-48
2021/07/10 00:17:47;;;;;;;;;;;;;;;;;;5080306;28;20071;-53
2021/07/10 00:20:14;;;;;;;0.50;0.50;;;;;;;;;;5082786;28;19919;-50
2021/07/10 00:22:42;;;;;;;2.30;0.60;;;;;;;;;;5077196;28;20040;-50
2021/07/10 00:25:09;;;;;;;0.60;0.60;;;;;;;;;;5088964;28;20067;-49
2021/07/10 00:27:39;;;;;;;1.88;0.60;;;;;;;;;;5090995;28;20044;-50
2021/07/10 00:30:07;;;;;;;0.52;0.52;;;;;;;;;;5091348;28;20068;-50
2021/07/10 00:32:34;;;;;;;0.60;0.60;;;;;;;;;;5086200;28;20119;-47
2021/07/10 00:35:03;;;;;;;1.13;0.60;;;;;;;;;;5088701;28;20766;-50
2021/07/10 00:37:30;;;;;;;0.60;0.60;;;;;;;;;;5090331;28;20154;-50
2021/07/10 00:39:57;;;;;;;0.90;0.80;;;;;;;;;;5088864;28;20115;-50
2021/07/10 00:42:23;;;;;;;5.03;1.65;;;;;;;;;;5085905;28;20105;-50
2021/07/10 00:44:50;;;;;;;1.55;0.60;;;;;;;;;;5089206;28;20036;-50
2021/07/10 00:47:20;;;;;;;2.47;0.60;;;;;;;;;;5075846;28;20066;-50
2021/07/10 00:49:46;;;;;;;0.88;0.70;;;;;;;;;;5087233;28;20040;-51
2021/07/10 00:52:13;;;;;;;0.60;0.60;;;;;;;;;;5087552;28;20032;-49
2021/07/10 00:54:40;;;;;;;1.75;0.60;;;;;;;;;;5089967;28;20064;-49
2021/07/10 00:57:07;;;;;;;2.15;0.60;;;;;;;;;;5087482;28;20102;-51
2021/07/10 00:59:35;;;;;;;1.15;0.70;;;;;;;;;;5073869;28;20512;-47
2021/07/10 01:02:02;;;;;;;0.82;0.60;;;;;;;;;;5089403;28;20089;-50
2021/07/10 01:04:29;;;;;;;1.08;0.60;;;;;;;;;;5089489;28;20032;-49
2021/07/10 01:06:55;;;;;;;2.17;0.60;;;;;;;;;;5077837;28;20064;-51
2021/07/10 01:09:22;;;;;;;1.95;0.60;;;;;;;;;;5085459;28;20052;-48
2021/07/10 01:11:49;;;;;;;1.50;0.60;;;;;;;;;;5088167;28;20040;-46
2021/07/10 01:14:16;;;;;;;0.60;0.60;;;;;;;;;;5079614;28;20405;-51
2021/07/10 01:16:43;;;;;;;0.60;0.60;;;;;;;;;;5081522;28;20063;-48
2021/07/10 01:19:10;;;;;;;2.03;0.60;;;;;;;;;;5085563;28;20038;-48
2021/07/10 01:21:38;;;;;;;0.63;0.63;;;;;;;;;;5086029;28;20166;-47
2021/07/10 01:24:05;;;;;;;0.70;0.70;;;;;;;;;;5088139;28;20040;-47
2021/07/10 01:26:31;;;;;;;0.70;0.70;;;;;;;;;;5087313;28;20028;-51
2021/07/10 01:28:58;;;;;;;0.70;0.70;;;;;;;;;;5092507;28;20112;-50
2021/07/10 01:31:25;;;;;;;0.68;0.68;;;;;;;;;;5092505;28;20091;-49
2021/07/10 01:33:56;;;;;;;3.03;1.00;;;;;;;;;;5094086;28;20048;-49
2021/07/10 01:36:22;;;;;;;1.27;0.70;;;;;;;;;;5092390;28;20083;-49
2021/07/10 01:38:49;;;;;;;0.70;0.70;;;;;;;;;;5093021;28;20127;-51
2021/07/10 01:41:16;;;;;;;0.68;0.68;;;;;;;;;;5092928;28;20032;-49
2021/07/10 01:43:43;;;;;;;0.60;0.60;;;;;;;;;;5086512;28;20027;-47
2021/07/10 01:46:10;;;;;;;1.08;0.70;;;;;;;;;;5093937;28;20040;-48
2021/07/10 01:48:37;;;;;;;1.00;0.82;;;;;;;;;;5091667;28;20040;-48
2021/07/10 01:51:04;;;;;;;0.70;0.70;;;;;;;;;;5080038;28;20045;-49
2021/07/10 01:53:31;;;;;;;1.35;0.70;;;;;;;;;;5088247;28;20516;-50
2021/07/10 01:55:57;;;;;;;0.88;0.65;;;;;;;;;;5091193;28;20032;-50
2021/07/10 01:58:24;;;;;;;1.15;0.60;;;;;;;;;;5093194;28;20036;-50
2021/07/10 02:00:52;;;;;;;1.45;0.60;;;;;;;;;;5092061;28;20502;-48
2021/07/10 02:03:18;;;;;;;2.60;0.70;;;;;;;;;;5094415;28;20070;-47
2021/07/10 02:05:45;;;;;;;0.75;0.70;;;;;;;;;;5089550;28;20055;-48
2021/07/10 02:08:12;;;;;;;2.28;0.60;;;;;;;;;;5094169;28;20511;-51
2021/07/10 02:10:39;;;;;;;2.28;0.60;;;;;;;;;;5091648;28;20078;-48
2021/07/10 02:13:10;;;;;;;1.67;0.60;;;;;;;;;;5089871;28;20357;-47
2021/07/10 02:15:37;;;;;;;0.65;0.60;;;;;;;;;;5094541;28;20043;-48
2021/07/10 02:18:05;;;;;;;0.60;0.60;;;;;;;;;;5088104;28;20055;-47
2021/07/10 02:20:32;;;;;;;2.17;0.60;;;;;;;;;;5087145;28;20048;-47
2021/07/10 02:22:59;;;;;;;1.25;0.60;;;;;;;;;;5081524;28;20111;-47
2021/07/10 02:25:27;;;;;;;0.70;0.70;;;;;;;;;;5085953;28;20122;-47
2021/07/10 02:27:54;;;;;;;0.70;0.70;;;;;;;;;;5085472;28;20036;-48
2021/07/10 02:30:26;;;;;;;1.13;0.70;;;;;;;;;;5087847;28;20548;-48
2021/07/10 02:32:54;;;;;;;0.70;0.70;;;;;;;;;;5088155;28;20032;-50
2021/07/10 02:35:26;;;;;;;0.70;0.70;;;;;;;;;;5092389;28;20039;-49
2021/07/10 02:37:54;;;;;;;0.70;0.70;;;;;;;;;;5089750;28;20055;-48
2021/07/10 02:40:21;;;;;;;0.70;0.70;;;;;;;;;;5092411;28;20073;-47
2021/07/10 02:42:48;;;;;;;0.63;0.60;;;;;;;;;;5092438;28;20044;-47
2021/07/10 02:45:16;;;;;;;0.70;0.70;;;;;;;;;;5092282;28;20036;-47
2021/07/10 02:47:43;;;;;;;0.70;0.70;;;;;;;;;;5077852;28;20095;-48
2021/07/10 02:50:12;;;;;;;1.75;0.70;;;;;;;;;;5091461;28;20059;-48
2021/07/10 02:52:39;;;;;;;3.05;0.80;;;;;;;;;;5079819;28;20132;-49
2021/07/10 02:55:06;;;;;;;0.80;0.70;;;;;;;;;;5092264;28;20085;-50
2021/07/10 02:57:33;;;;;;;0.70;0.70;;;;;;;;;;5092771;28;20039;-48
2021/07/10 03:00:00;;;;;;;0.70;0.70;;;;;;;;;;5073096;28;20041;-49
2021/07/10 03:02:27;;;;;;;1.75;0.70;;;;;;;;;;5083633;28;20047;-47
2021/07/10 03:04:59;;;;;;;1.27;0.70;;;;;;;;;;5080049;28;20539;-47
2021/07/10 03:07:26;;;;;;;1.48;0.80;;;;;;;;;;5097386;28;20081;-50
2021/07/10 03:09:53;;;;;;;0.82;0.82;;;;;;;;;;5088651;28;20058;-49
2021/07/10 03:12:19;;;;;;;0.80;0.80;;;;;;;;;;5091712;28;20093;-50
2021/07/10 03:14:46;;;;;;;1.02;0.80;;;;;;;;;;5085135;28;20036;-50
2021/07/10 03:17:13;;;;;;;0.80;0.80;;;;;;;;;;5087158;28;20064;-50
2021/07/10 03:19:42;;;;;;;3.08;0.70;;;;;;;;;;5092123;28;20036;-48
2021/07/10 03:22:09;;;;;;;0.80;0.80;;;;;;;;;;5090878;28;20064;-48
2021/07/10 03:24:35;;;;;;;0.70;0.70;;;;;;;;;;5088687;28;20048;-47
2021/07/10 03:27:02;;;;;;;0.80;0.80;;;;;;;;;;5089463;28;20044;-49
2021/07/10 03:29:29;;;;;;;2.13;0.70;;;;;;;;;;5089304;28;20059;-48
2021/07/10 03:31:58;;;;;;;1.40;0.85;;;;;;;;;;5077279;28;20101;-50
2021/07/10 03:34:24;;;;;;;1.27;0.70;;;;;;;;;;5089798;28;20537;-46
2021/07/10 03:36:51;;;;;;;0.95;0.70;;;;;;;;;;5088893;28;20090;-48
2021/07/10 03:39:18;;;;;;;0.70;0.70;;;;;;;;;;5089583;28;20507;-49
2021/07/10 03:41:44;;;;;;;0.60;0.60;;;;;;;;;;5095272;28;20027;-51
2021/07/10 03:44:11;;;;;;;2.65;0.70;;;;;;;;;;5085295;28;20040;-49
2021/07/10 03:46:38;;;;;;;1.83;0.70;;;;;;;;;;5087891;28;20122;-49
2021/07/10 03:49:05;;;;;;;2.58;0.70;;;;;;;;;;5089813;28;21604;-47
2021/07/10 03:51:31;;;;;;;0.70;0.70;;;;;;;;;;5090653;28;20525;-47
2021/07/10 03:53:58;;;;;;;0.80;0.80;;;;;;;;;;5089310;28;20036;-48
2021/07/10 03:56:25;;;;;;;0.88;0.88;;;;;;;;;;5074661;28;20115;-50
2021/07/10 03:58:52;;;;;;;1.65;0.80;;;;;;;;;;5089585;28;20093;-49
2021/07/10 04:01:18;;;;;;;2.05;0.80;;;;;;;;;;5088688;28;20069;-49
2021/07/10 04:03:48;;;;;;;0.82;0.80;;;;;;;;;;5102244;28;20070;-47
2021/07/10 04:06:15;;;;;;;1.48;0.90;;;;;;;;;;5093266;28;20120;-46
2021/07/10 04:08:41;;;;;;;0.80;0.80;;;;;;;;;;5083489;28;20065;-47
2021/07/10 04:11:10;;;;;;;1.25;0.80;;;;;;;;;;5088963;28;20078;-48
2021/07/10 04:13:36;;;;;;;0.85;0.70;;;;;;;;;;5089555;28;20040;-48
2021/07/10 04:16:03;;;;;;;0.80;0.80;;;;;;;;;;5089896;28;20040;-50
2021/07/10 04:18:32;;;;;;;1.00;1.00;;;;;;;;;;5090005;28;20042;-49
2021/07/10 04:20:59;;;;;;;0.70;0.70;;;;;;;;;;5100140;28;20077;-48
2021/07/10 04:23:26;;;;;;;0.90;0.70;;;;;;;;;;5096447;28;20028;-50
2021/07/10 04:25:52;;;;;;;0.80;0.80;;;;;;;;;;5088316;28;20035;-47
2021/07/10 04:28:24;;;;;;;1.45;1.27;;;;;;;;;;5090000;28;20060;-47
2021/07/10 04:30:51;;;;;;;0.98;0.98;;;;;;;;;;5088607;28;20040;-49
2021/07/10 04:33:18;;;;;;;0.80;0.80;;;;;;;;;;5072295;28;20064;-47
2021/07/10 04:35:45;;;;;;;0.80;0.80;;;;;;;;;;5090041;28;20056;-51
2021/07/10 04:38:15;;;;;;;1.10;0.80;;;;;;;;;;5088686;28;20040;-47
2021/07/10 04:40:42;;;;;;;1.02;0.80;;;;;;;;;;5093569;28;20069;-49
2021/07/10 04:43:12;;;;;;;4.22;0.90;;;;;;;;;;5088497;28;20036;-49
2021/07/10 04:45:39;;;;;;;1.17;0.80;;;;;;;;;;5089842;28;20100;-49
2021/07/10 04:48:06;;;;;;;2.00;0.70;;;;;;;;;;5080093;28;20036;-46
2021/07/10 04:50:33;;;;;;;1.48;1.00;;;;;;;;;;5085402;28;20070;-47
2021/07/10 04:53:00;;;;;;;0.70;0.70;;;;;;;;;;5092287;28;20093;-49
2021/07/10 04:55:26;;;;;;;0.70;0.70;;;;;;;;;;5089057;28;20131;-48
2021/07/10 04:57:53;;;;;;;2.35;0.70;;;;;;;;;;5088537;28;20113;-50
2021/07/10 05:00:20;;;;;;;0.70;0.70;;;;;;;;;;5077281;28;20062;-50
2021/07/10 05:02:49;;;;;;;0.73;0.70;;;;;;;;;;5083943;28;20032;-48
2021/07/10 05:05:16;;;;;;;0.60;0.60;;;;;;;;;;5097879;28;20032;-50
2021/07/10 05:07:44;;;;;;;1.27;0.70;;;;;;;;;;5090106;28;20471;-48
2021/07/10 05:10:11;;;;;;;1.52;0.85;;;;;;;;;;5091551;28;20445;-48
2021/07/10 05:12:37;;;;;;;0.70;0.70;;;;;;;;;;5088639;28;20075;-49
2021/07/10 05:15:07;;;;;;;0.80;0.80;;;;;;;;;;5088511;28;20375;-46
2021/07/10 05:17:34;;;;;;;2.30;0.70;;;;;;;;;;5089359;28;20082;-49
2021/07/10 05:20:06;;;;;;;1.77;0.80;;;;;;;;;;5095519;28;20032;-49
2021/07/10 05:22:33;;;;;;;1.15;0.70;;;;;;;;;;5087991;28;20064;-46
2021/07/10 05:25:00;;;;;;;3.30;0.70;;;;;;;;;;5080005;28;20044;-53
2021/07/10 05:27:26;;;;;;;2.55;0.70;;;;;;;;;;5084175;28;20033;-54
2021/07/10 05:29:53;;;;;;;2.20;0.70;;;;;;;;;;5073144;28;20064;-53
2021/07/10 05:32:20;;;;;;;0.70;0.70;;;;;;;;;;5090770;28;20044;-53
2021/07/10 05:34:47;;;;;;;2.78;1.88;;;;;;;;;;5090779;28;20044;-54
2021/07/10 05:37:13;;;;;;;1.83;0.90;;;;;;;;;;5077845;28;20519;-54
2021/07/10 05:39:42;;;;;;;1.42;0.80;;;;;;;;;;5086491;28;20128;-54
2021/07/10 05:42:10;;;;;;;1.15;0.80;;;;;;;;;;5089172;28;20044;-54
2021/07/10 05:44:37;;;;;;;1.95;0.80;;;;;;;;;;5100081;28;20100;-53
2021/07/10 05:47:04;;;;;;;1.85;0.70;;;;;;;;;;5093828;28;20046;-53
2021/07/10 05:49:31;;;;;;;1.00;0.80;;;;;;;;;;5072792;28;20074;-54
2021/07/10 05:51:58;;;;;;;1.17;0.60;;;;;;;;;;5083185;28;20527;-54
2021/07/10 05:54:25;;;;;;;5.95;1.17;;;;;;;;;;5084223;28;20471;-53
2021/07/10 05:56:52;;;;;;;0.70;0.70;;;;;;;;;;5086606;28;20075;-54
2021/07/10 05:59:19;;;;;;;0.70;0.70;;;;;;;;;;5086458;28;20492;-54
2021/07/10 06:01:45;;;;;;;2.28;0.70;;;;;;;;;;5088422;28;20083;-53
2021/07/10 06:04:12;;;;;;;0.65;0.65;;;;;;;;;;5088080;28;20028;-53
2021/07/10 06:06:39;;;;;;;1.67;0.70;;;;;;;;;;5086510;28;20050;-54
2021/07/10 06:09:06;;;;;;;0.65;0.65;;;;;;;;;;5067168;28;20106;-54
2021/07/10 06:11:33;;;;;;;1.20;1.10;;;;;;;;;;5084243;28;20086;-53
2021/07/10 06:14:03;;;;;;;0.82;0.80;;;;;;;;;;5090309;28;20058;-54
2021/07/10 06:16:30;;;;;;;1.98;0.60;;;;;;;;;;5093190;28;20522;-54
2021/07/10 06:18:57;;;;;;;1.33;0.60;;;;;;;;;;5090303;28;20040;-53
2021/07/10 06:21:24;;;;;;;3.03;0.60;;;;;;;;;;5078990;28;20056;-53
2021/07/10 06:23:51;;;;;;;0.60;0.60;;;;;;;;;;5089693;28;20518;-54
2021/07/10 06:26:17;;;;;;;3.67;0.60;;;;;;;;;;5076368;28;20093;-54
2021/07/10 06:28:47;;;;;;;3.20;0.60;;;;;;;;;;5092560;28;20048;-54
2021/07/10 06:31:13;;;;;;;0.63;0.60;;;;;;;;;;5093057;28;20048;-54
2021/07/10 06:33:40;;;;;;;0.60;0.60;;;;;;;;;;5075438;28;20478;-54
2021/07/10 06:36:07;;;;;;;0.63;0.63;;;;;;;;;;5089998;28;20055;-54
2021/07/10 06:38:42;;;;;;;1.48;0.50;;;;;;;;;;5091240;28;20076;-54
2021/07/10 06:41:09;;;;;;;1.02;0.93;;;;;;;;;;5093533;28;20035;-54
2021/07/10 06:43:36;;;;;;;2.03;0.50;;;;;;;;;;5091845;28;20123;-54
2021/07/10 06:46:06;;;;;;;0.60;0.60;;;;;;;;;;5109399;28;20118;-54
2021/07/10 06:48:34;;;;;;;0.50;0.50;;;;;;;;;;5092173;28;20114;-54
2021/07/10 06:51:00;;;;;;;0.60;0.60;;;;;;;;;;5088679;28;20139;-53
2021/07/10 06:53:27;;;;;;;0.60;0.60;;;;;;;;;;5093237;28;20050;-54
2021/07/10 06:55:54;;;;;;;2.05;0.50;;;;;;;;;;5092508;28;20045;-55
2021/07/10 06:58:20;;;;;;;1.02;0.50;;;;;;;;;;5078587;28;20099;-54
2021/07/10 07:00:47;;;;;;;0.60;0.60;;;;;;;;;;5082712;28;20041;-54
2021/07/10 07:03:14;;;;;;;1.05;0.50;;;;;;;;;;5085590;28;20040;-54
2021/07/10 07:05:41;;;;;;;0.50;0.50;;;;;;;;;;5093186;28;20044;-54
2021/07/10 07:08:08;;;;;;;1.40;0.50;;;;;;;;;;5089297;28;20624;-54
2021/07/10 07:10:35;;;;;;;0.60;0.60;;;;;;;;;;5082142;28;20040;-54
2021/07/10 07:13:01;;;;;;;0.52;0.52;;;;;;;;;;5086925;28;20543;-54
2021/07/10 07:15:28;;;;;;;1.15;0.50;;;;;;;;;;5081590;28;20048;-55
2021/07/10 07:17:55;;;;;;;1.65;0.50;;;;;;;;;;5090876;28;20184;-54
2021/07/10 07:20:22;;;;;;;0.60;0.60;;;;;;;;;;5089789;28;20058;-55
2021/07/10 07:22:49;;;;;;;1.38;0.60;;;;;;;;;;5090038;28;20060;-54
2021/07/10 07:25:17;;;;;;;1.35;0.50;;;;;;;;;;5089155;28;20586;-54
2021/07/10 07:27:45;;;;;;;0.82;0.60;;;;;;;;;;5082497;28;20115;-55
2021/07/10 07:30:12;;;;;;;3.65;0.50;;;;;;;;;;5091434;28;20127;-54
2021/07/10 07:32:38;;;;;;;1.20;0.50;;;;;;;;;;5089809;28;20032;-54
2021/07/10 07:35:06;;;;;;;8.35;1.40;;;;;;;;;;5089741;28;20388;-55
2021/07/10 07:37:32;;;;;;;0.90;0.60;;;;;;;;;;5080272;28;20116;-54
2021/07/10 07:39:59;;;;;;;0.50;0.50;;;;;;;;;;5089632;28;20036;-54
2021/07/10 07:42:26;;;;;;;6.13;0.50;;;;;;;;;;5083927;28;20075;-55
2021/07/10 07:44:53;;;;;;;3.53;0.70;;;;;;;;;;5089996;28;20044;-55
2021/07/10 07:47:20;;;;;;;0.60;0.60;;;;;;;;;;5089030;28;20032;-55
2021/07/10 07:49:47;;;;;;;0.88;0.50;;;;;;;;;;5086064;28;20033;-55
2021/07/10 07:52:13;;;;;;;0.40;0.40;;;;;;;;;;5090379;28;20126;-55
2021/07/10 07:54:41;;;;;;;1.02;0.40;;;;;;;;;;5090489;28;20068;-54
2021/07/10 07:57:07;;;;;;;1.08;0.50;;;;;;;;;;5085813;28;20033;-55
2021/07/10 07:59:34;;;;;;;0.60;0.50;;;;;;;;;;5089539;28;20101;-55
2021/07/10 08:02:03;;;;;;;0.65;0.50;;;;;;;;;;5090969;28;20071;-56
2021/07/10 08:04:30;;;;;;;0.40;0.40;;;;;;;;;;5089754;28;20032;-55
2021/07/10 08:06:57;;;;;;;0.52;0.52;;;;;;;;;;5088347;28;20043;-55
2021/07/10 08:09:24;;;;;;;1.30;0.40;;;;;;;;;;5092569;28;20032;-55
2021/07/10 08:11:51;;;;;;;1.02;0.40;;;;;;;;;;5090298;28;20535;-55
2021/07/10 08:14:17;;;;;;;4.38;0.30;;;;;;;;;;5078792;28;20527;-54
2021/07/10 08:16:44;;;;;;;1.20;0.32;;;;;;;;;;5084752;28;20040;-55
2021/07/10 08:19:11;;;;;;;0.80;0.32;;;;;;;;;;5073844;28;20043;-55
2021/07/10 08:21:38;;;;;;;3.65;0.32;;;;;;;;;;5099635;28;20510;-55
2021/07/10 08:24:05;;;;;;;0.30;0.30;;;;;;;;;;5095651;28;20077;-55
2021/07/10 08:26:33;;;;;;;2.70;0.30;;;;;;;;;;5080901;28;20653;-55
2021/07/10 08:29:00;;;;;;;0.93;0.30;;;;;;;;;;5084666;28;20040;-55
2021/07/10 08:31:27;;;;;;;0.70;0.30;;;;;;;;;;5045220;28;20048;-55
2021/07/10 08:33:55;;;;;;;1.00;0.30;;;;;;;;;;5082706;28;20055;-56
2021/07/10 08:36:24;;;;;;;0.40;0.30;;;;;;;;;;5056236;28;20403;-55
2021/07/10 08:38:52;;;;;;;0.30;0.30;;;;;;;;;;5079168;28;20857;-55
2021/07/10 08:41:19;;;;;;;0.30;0.30;;;;;;;;;;5088242;28;20051;-55
2021/07/10 08:43:46;;;;;;;1.45;0.20;;;;;;;;;;5085932;28;20032;-56
2021/07/10 08:46:18;;;;;;;0.20;0.20;;;;;;;;;;5082637;28;20499;-56
2021/07/10 08:48:45;;;;;;;0.30;0.30;;;;;;;;;;5084852;28;20032;-56
2021/07/10 08:51:13;;;;;;;0.20;0.20;;;;;;;;;;5070851;28;20029;-55
2021/07/10 08:53:40;;;;;;;0.40;0.20;;;;;;;;;;5089123;28;20079;-56
2021/07/10 08:56:08;;;;;;;0.80;0.63;;;;;;;;;;5090501;28;20100;-55
2021/07/10 08:58:35;;;;;;;0.20;0.20;;;;;;;;;;5088435;28;20040;-56
2021/07/10 09:01:03;;;;;;;0.80;0.20;;;;;;;;;;5087889;28;20115;-56
2021/07/10 09:03:30;;;;;;;0.20;0.20;;;;;;;;;;5088689;28;20044;-56
2021/07/10 09:05:57;;;;;;;0.20;0.20;;;;;;;;;;5089544;28;20075;-56
2021/07/10 09:08:28;;;;;;;0.73;0.20;;;;;;;;;;5088998;28;20068;-56
2021/07/10 09:11:00;;;;;;;2.30;0.20;;;;;;;;;;5089642;28;20063;-55
2021/07/10 09:13:36;;;;;;;0.20;0.20;;;;;;;;;;5088711;28;20036;-56
2021/07/10 09:16:05;;;;;;;0.98;0.20;;;;;;;;;;5088181;28;20115;-56
2021/07/10 09:18:36;;;;;;;0.52;0.20;;;;;;;;;;5078967;28;20103;-56
2021/07/10 09:21:03;;;;;;;0.65;0.20;;;;;;;;;;5084879;28;20122;-56
2021/07/10 09:23:32;;;;;;;0.95;0.20;;;;;;;;;;5088270;28;20131;-56
2021/07/10 09:26:21;;;;;;;0.55;0.20;;;;;;;;;;5082804;28;20044;-56
2021/07/10 09:28:56;;;;;;;4.20;0.20;;;;;;;;;;5081936;28;20040;-56
2021/07/10 09:31:46;;;;;;;0.98;0.20;;;;;;;;;;5074616;28;20036;-56
2021/07/10 09:34:18;;;;;;;0.20;0.20;;;;;;;;;;5080767;28;20627;-56
2021/07/10 09:36:50;;;;;;;1.60;0.25;;;;;;;;;;5088379;28;20068;-56
2021/07/10 09:39:17;;;;;;;0.20;0.20;;;;;;;;;;5089422;28;20040;-56
2021/07/10 09:41:44;;;;;;;0.20;0.20;;;;;;;;;;5087989;28;20471;-56
2021/07/10 09:44:14;;;;;;;0.20;0.20;;;;;;;;;;5079210;28;20135;-56
2021/07/10 09:46:42;;;;;;;0.63;0.20;;;;;;;;;;5085181;28;20106;-55
2021/07/10 09:49:26;;;;;;;0.40;0.20;;;;;;;;;;5086924;28;20036;-56
2021/07/10 09:51:57;;;;;;;0.30;0.20;;;;;;;;;;5075685;28;20114;-55
2021/07/10 09:54:27;;;;;;;0.20;0.20;;;;;;;;;;5085629;28;20078;-55
2021/07/10 09:57:05;;;;;;;0.95;0.13;;;;;;;;;;5084464;28;20064;-56
2021/07/10 09:59:39;;;;;;;0.20;0.20;;;;;;;;;;5092609;28;20043;-55
2021/07/10 10:02:25;;;;;;;0.20;0.20;;;;;;;;;;5092058;28;20074;-56
2021/07/10 10:04:58;;;;;;;1.10;0.20;;;;;;;;;;5088317;28;20036;-56
2021/07/10 10:07:25;;;;;;;0.75;0.20;;;;;;;;;;5092869;28;20118;-56
2021/07/10 10:09:56;;;;;;;0.10;0.10;;;;;;;;;;5090968;28;20101;-55
2021/07/10 10:12:23;;;;;;;0.20;0.20;;;;;;;;;;5082488;28;20036;-56
2021/07/10 10:14:56;;;;;;;0.20;0.20;;;;;;;;;;5091072;28;20048;-55
2021/07/10 10:17:25;;;;;;;1.40;0.20;;;;;;;;;;5091906;28;20115;-56
2021/07/10 10:19:52;;;;;;;0.10;0.10;;;;;;;;;;5091290;28;20046;-56
2021/07/10 10:22:21;;;;;;;0.10;0.10;;;;;;;;;;5087142;28;20616;-55
2021/07/10 10:24:50;;;;;;;0.10;0.10;;;;;;;;;;5081329;28;20044;-56
2021/07/10 10:27:17;;;;;;;0.50;0.13;;;;;;;;;;5079577;28;20052;-55
2021/07/10 10:29:45;;;;;;;0.10;0.10;;;;;;;;;;5070402;28;20039;-56
2021/07/10 10:32:12;;;;;;;0.10;0.10;;;;;;;;;;5092005;28;20064;-56
2021/07/10 10:34:39;;;;;;;0.20;0.15;;;;;;;;;;5085971;28;20082;-56
2021/07/10 10:37:07;;;;;;;1.23;0.20;;;;;;;;;;5089103;28;20074;-56
2021/07/10 10:39:34;;;;;;;0.20;0.10;;;;;;;;;;5078249;28;20075;-56
2021/07/10 10:42:05;;;;;;;0.10;0.10;;;;;;;;;;5091085;28;20065;-56
2021/07/10 10:44:40;;;;;;;0.10;0.10;;;;;;;;;;5084001;28;20063;-56
2021/07/10 10:47:09;;;;;;;0.73;0.20;;;;;;;;;;5085692;28;20040;-56
2021/07/10 10:49:46;;;;;;;0.57;0.15;;;;;;;;;;5085138;28;20049;-56
2021/07/10 10:52:16;;;;;;;1.55;0.10;;;;;;;;;;5078365;28;20052;-56
2021/07/10 10:54:47;;;;;;;0.10;0.10;;;;;;;;;;5092460;28;20122;-56
2021/07/10 10:57:14;;;;;;;0.20;0.20;;;;;;;;;;5089038;28;20127;-55
2021/07/10 10:59:42;;;;;;;0.10;0.10;;;;;;;;;;5085127;28;20492;-56
2021/07/10 11:02:24;;;;;;;0.20;0.20;;;;;;;;;;5087799;28;20032;-56
2021/07/10 11:04:55;;;;;;;0.10;0.10;;;;;;;;;;5090735;28;20039;-56
2021/07/10 11:07:22;;;;;;;0.68;0.10;;;;;;;;;;5078765;28;20119;-56
2021/07/10 11:10:04;;;;;;;0.10;0.10;;;;;;;;;;5083364;28;20056;-56
2021/07/10 11:12:49;;;;;;;0.55;0.10;;;;;;;;;;5077839;28;20052;-56
2021/07/10 11:15:24;;;;;;;0.10;0.10;;;;;;;;;;5088427;28;20076;-56
2021/07/10 11:17:57;;;;;;;0.10;0.10;;;;;;;;;;5086092;28;20040;-55
2021/07/10 11:20:45;;;;;;;0.10;0.10;;;;;;;;;;5085208;28;20366;-56
2021/07/10 11:23:12;;;;;;;0.17;0.15;;;;;;;;;;5092845;28;20039;-56
2021/07/10 11:25:45;;;;;;;0.50;0.10;;;;;;;;;;5090207;28;20048;-56
2021/07/10 11:28:21;;;;;;;0.93;0.20;;;;;;;;;;5091531;28;20036;-56
2021/07/10 11:30:50;;;;;;;0.10;0.10;;;;;;;;;;5089080;28;20044;-56
2021/07/10 11:33:37;;;;;;;0.90;0.10;;;;;;;;;;5090145;28;20446;-56
2021/07/10 11:36:03;;;;;;;0.10;0.10;;;;;;;;;;5089920;28;20139;-53
2021/07/10 11:38:39;;;;;;;0.10;0.10;;;;;;;;;;5088630;28;20044;-52
2021/07/10 11:41:06;;;;;;;0.10;0.10;;;;;;;;;;5095686;28;20047;-52
2021/07/10 11:43:55;;;;;;;0.10;0.10;;;;;;;;;;5091932;28;20039;-52
2021/07/10 11:46:22;;;;;;;0.10;0.10;;;;;;;;;;5088893;28;20109;-52
2021/07/10 11:48:49;;;;;;;0.10;0.10;;;;;;;;;;5086873;28;20032;-52
2021/07/10 11:51:21;;;;;;;0.20;0.20;;;;;;;;;;5091310;28;20093;-52
2021/07/10 11:53:48;;;;;;;;;;;;;;;;;;5082299;28;20126;-53
2021/07/10 11:56:14;;;;;;;0.10;0.10;;;;;;;;;;5075053;28;19948;-52
2021/07/10 11:58:41;;;;;;;0.10;0.10;;;;;;;;;;5088793;28;20354;-53
2021/07/10 12:01:08;;;;;;;1.08;0.10;;;;;;;;;;5089115;28;20043;-53
2021/07/10 12:03:35;;;;;;;0.10;0.10;;;;;;;;;;5071851;28;20056;-53
2021/07/10 12:06:02;;;;;;;0.20;0.20;;;;;;;;;;5092252;28;20036;-53
2021/07/10 12:08:29;;;;;;;0.80;0.20;;;;;;;;;;5076759;28;20032;-53
2021/07/10 12:10:56;;;;;;;0.20;0.15;;;;;;;;;;5089313;28;20490;-53
2021/07/10 12:13:25;;;;;;;0.10;0.10;;;;;;;;;;5089625;28;20737;-53
2021/07/10 12:15:57;;;;;;;0.10;0.10;;;;;;;;;;5088954;28;20472;-52
2021/07/10 12:18:25;;;;;;;0.10;0.10;;;;;;;;;;5087916;28;20120;-53
2021/07/10 12:20:56;;;;;;;1.00;0.10;;;;;;;;;;5088523;28;20391;-51
2021/07/10 12:23:27;;;;;;;2.00;0.10;;;;;;;;;;5088841;28;20526;-53
2021/07/10 12:26:04;;;;;;;0.10;0.10;;;;;;;;;;5088044;28;20028;-53
2021/07/10 12:28:39;;;;;;;0.10;0.10;;;;;;;;;;5079859;28;20082;-53
2021/07/10 12:31:26;;;;;;;1.08;0.10;;;;;;;;;;5088418;28;20052;-53
2021/07/10 12:33:55;;;;;;;0.13;0.13;;;;;;;;;;5082216;28;20040;-53
2021/07/10 12:36:37;;;;;;;0.10;0.10;;;;;;;;;;5069137;28;20135;-53
2021/07/10 12:39:10;;;;;;;28.83;25.02;;;;;;;;;;5086400;28;20032;-52
2021/07/10 12:41:41;;;;;;;2.92;0.40;;;;;;;;;;5098982;28;20048;-52
2021/07/10 12:44:19;;;;;;;0.20;0.10;;;;;;;;;;5091114;28;20468;-52
2021/07/10 12:47:00;;;;;;;0.95;0.20;;;;;;;;;;5089712;28;20119;-52
2021/07/10 12:49:30;;;;;;;;;;;;;;;;;;5084984;28;20079;-52
2021/07/10 12:51:57;;;;;;;0.10;0.10;;;;;;;;;;5091430;28;19920;-53
2021/07/10 12:54:30;;;;;;;0.20;0.20;;;;;;;;;;5089625;28;20085;-53
2021/07/10 12:56:57;;;;;;;0.22;0.10;;;;;;;;;;5106256;28;20067;-52
2021/07/10 12:59:25;;;;;;;0.40;0.10;;;;;;;;;;5088294;28;20527;-53
2021/07/10 13:01:52;;;;;;;0.10;0.10;;;;;;;;;;5088379;28;20495;-53
2021/07/10 13:04:20;;;;;;;0.82;0.10;;;;;;;;;;5054675;28;20048;-52
2021/07/10 13:06:46;;;;;;;0.98;0.10;;;;;;;;;;5088760;28;20032;-53
2021/07/10 13:09:13;;;;;;;0.95;0.10;;;;;;;;;;5079516;28;20060;-54
2021/07/10 13:11:47;;;;;;;0.10;0.10;;;;;;;;;;5090272;28;20527;-53
2021/07/10 13:14:20;;;;;;;0.13;0.13;;;;;;;;;;5087441;28;20089;-53
2021/07/10 13:16:47;;;;;;;1.30;0.20;;;;;;;;;;5089823;28;20071;-52
2021/07/10 13:19:14;;;;;;;0.10;0.10;;;;;;;;;;5087414;28;20032;-53
2021/07/10 13:21:41;;;;;;;0.10;0.10;;;;;;;;;;5089351;28;20060;-53
2021/07/10 13:24:14;;;;;;;0.10;0.10;;;;;;;;;;5047529;28;20554;-51
2021/07/10 13:26:42;;;;;;;0.15;0.10;;;;;;;;;;5084970;28;20074;-52
2021/07/10 13:29:21;;;;;;;1.23;0.10;;;;;;;;;;5093407;28;20101;-52
2021/07/10 13:32:01;;;;;;;0.47;0.10;;;;;;;;;;5098944;28;20035;-53
2021/07/10 13:34:36;;;;;;;0.10;0.10;;;;;;;;;;5084014;28;20533;-53
2021/07/10 13:37:03;;;;;;;0.25;0.20;;;;;;;;;;5076973;28;20090;-53
2021/07/10 13:39:31;;;;;;;0.10;0.10;;;;;;;;;;5086755;28;20156;-53
2021/07/10 13:42:01;;;;;;;0.10;0.10;;;;;;;;;;5077268;28;20029;-54
2021/07/10 13:44:29;;;;;;;0.10;0.10;;;;;;;;;;5093260;28;20032;-52
2021/07/10 13:47:03;;;;;;;0.20;0.20;;;;;;;;;;5097193;28;20059;-53
2021/07/10 13:49:40;;;;;;;0.15;0.10;;;;;;;;;;5091710;28;20040;-52
2021/07/10 13:52:06;;;;;;;0.10;0.10;;;;;;;;;;5091887;28;20468;-54
2021/07/10 13:54:35;;;;;;;0.80;0.15;;;;;;;;;;5089794;28;20130;-56
2021/07/10 13:57:08;;;;;;;0.80;0.20;;;;;;;;;;5094181;28;20044;-56
2021/07/10 13:59:35;;;;;;;1.02;0.10;;;;;;;;;;5091531;28;20048;-56
2021/07/10 14:02:02;;;;;;;0.30;0.30;;;;;;;;;;5092066;28;20119;-56
2021/07/10 14:04:29;;;;;;;0.15;0.15;;;;;;;;;;5088714;28;20032;-56
2021/07/10 14:06:56;;;;;;;0.32;0.10;;;;;;;;;;5092666;28;20123;-57
2021/07/10 14:09:23;;;;;;;0.17;0.10;;;;;;;;;;5092089;28;20071;-56
2021/07/10 14:11:50;;;;;;;0.20;0.20;;;;;;;;;;5087537;28;20036;-57
2021/07/10 14:14:16;;;;;;;0.10;0.10;;;;;;;;;;5078806;28;20110;-56
2021/07/10 14:16:43;;;;;;;0.10;0.10;;;;;;;;;;5083596;28;20119;-56
2021/07/10 14:19:10;;;;;;;0.30;0.17;;;;;;;;;;5086085;28;21500;-56
2021/07/10 14:21:39;;;;;;;0.20;0.20;;;;;;;;;;5090504;28;20040;-56
2021/07/10 14:24:06;;;;;;;0.10;0.10;;;;;;;;;;5092591;28;21276;-56
2021/07/10 14:26:32;;;;;;;0.10;0.10;;;;;;;;;;5088467;28;20078;-56
2021/07/10 14:28:59;;;;;;;0.20;0.10;;;;;;;;;;5094335;28;20052;-56
2021/07/10 14:31:26;;;;;;;0.10;0.10;;;;;;;;;;5092161;28;20473;-56
2021/07/10 14:33:54;;;;;;;0.45;0.10;;;;;;;;;;5082333;28;20093;-56
2021/07/10 14:36:21;;;;;;;3.47;0.10;;;;;;;;;;5090788;28;20503;-56
2021/07/10 14:38:48;;;;;;;0.30;0.10;;;;;;;;;;5090394;28;21565;-56
2021/07/10 14:41:15;;;;;;;0.45;0.10;;;;;;;;;;5094591;28;20075;-56
2021/07/10 14:43:41;;;;;;;0.10;0.10;;;;;;;;;;5091870;28;20092;-56
2021/07/10 14:46:08;;;;;;;0.10;0.10;;;;;;;;;;5077792;28;20032;-55
2021/07/10 14:48:35;;;;;;;0.20;0.10;;;;;;;;;;5092810;28;20515;-55
2021/07/10 14:51:02;;;;;;;0.10;0.10;;;;;;;;;;5090657;28;20044;-56